Terminal Aerodrome Forecast
Issued by NWS

Home | Current Version | Previous Version | Text Only | Print | Product List | Glossary On
Versions: 1 2 3 4 5 6 7 8 9 10 11 12 13 14 15 16 17 18 19 20 21 22 23 24 25 26 27 28
232
FTUS42 KMLB 151136
TAFSFB
TAF
KSFB 151136Z 1512/1612 36007KT P6SM VCSH SCT020 SCT040 BKN250
      TEMPO 1512/1514 5SM SHRA BKN020
     FM151400 01011KT P6SM VCSH SCT025 BKN040 BKN120
      TEMPO 1515/1518 3SM SHRA BKN025
     FM151800 01013G19KT P6SM VCSH SCT035 BKN060
     FM160000 33006KT P6SM SCT040 BKN080=

USA.gov is the U.S. government's official web portal to all federal, state and local government web resources and services.